Time;durP1;ratioP1;P1;durP2;ratioP2;P2;SDS_P1;SDS_P2;PMS_P1;PMS_P2;Temp;Humidity;BMP_temperature;BMP_pressure;BME280_temperature;BME280_humidity;BME280_pressure;Samples;Min_cycle;Max_cycle;Signal;HPM_P1;HPM_P2
2021/01/19 00:00:00;;;;;;;12.18;5.18;;;;;;;0.00;83.43;97477.41;5016006;28;20057;-67
2021/01/19 00:02:26;;;;;;;10.30;4.88;;;;;;;-0.14;84.34;97474.53;5012336;28;20060;-68
2021/01/19 00:04:52;;;;;;;10.68;5.68;;;;;;;-0.20;84.97;97484.53;5014242;28;20041;-67
2021/01/19 00:07:17;;;;;;;10.07;6.22;;;;;;;-0.27;85.44;97473.25;5024692;28;20038;-69
2021/01/19 00:09:42;;;;;;;13.10;5.90;;;;;;;-0.30;86.51;97470.31;5035223;28;20045;-67
2021/01/19 00:12:08;;;;;;;10.80;5.90;;;;;;;-0.34;86.26;97472.75;5017051;28;20116;-66
2021/01/19 00:14:33;;;;;;;11.23;6.10;;;;;;;-0.36;86.17;97464.16;5019018;28;20041;-68
2021/01/19 00:16:58;;;;;;;11.40;5.95;;;;;;;-0.38;86.13;97463.59;5005431;28;20397;-69
2021/01/19 00:19:24;;;;;;;12.98;7.50;;;;;;;-0.32;86.82;97448.25;5013840;28;20049;-67
2021/01/19 00:21:49;;;;;;;10.75;5.60;;;;;;;-0.28;86.79;97460.06;5023332;28;20112;-68
2021/01/19 00:24:14;;;;;;;19.35;7.05;;;;;;;-0.30;86.99;97459.53;5018847;28;21012;-68
2021/01/19 00:26:40;;;;;;;14.52;7.03;;;;;;;-0.32;87.09;97446.34;5023058;28;20041;-69
2021/01/19 00:29:06;;;;;;;14.45;6.35;;;;;;;-0.27;86.67;97451.72;5016615;28;20442;-68
2021/01/19 00:31:31;;;;;;;13.85;6.60;;;;;;;-0.30;86.91;97449.56;5022534;28;20073;-68
2021/01/19 00:33:57;;;;;;;11.00;6.53;;;;;;;-0.33;86.60;97455.50;5021924;28;20103;-66
2021/01/19 00:36:22;;;;;;;9.02;6.05;;;;;;;-0.32;86.91;97457.13;5018406;28;20513;-67
2021/01/19 00:38:47;;;;;;;10.02;5.60;;;;;;;-0.29;86.91;97444.97;5022427;28;20140;-67
2021/01/19 00:41:13;;;;;;;12.27;5.53;;;;;;;-0.29;86.80;97447.66;5016564;28;20090;-66
2021/01/19 00:43:38;;;;;;;13.88;6.07;;;;;;;-0.36;86.93;97447.16;5021397;28;20041;-68
2021/01/19 00:46:03;;;;;;;11.82;6.25;;;;;;;-0.34;87.19;97442.31;5018909;28;20056;-66
2021/01/19 00:48:29;;;;;;;11.93;5.85;;;;;;;-0.35;87.06;97441.50;5021366;28;20045;-68
2021/01/19 00:50:54;;;;;;;9.57;5.80;;;;;;;-0.35;87.09;97440.72;5022901;28;20042;-68
2021/01/19 00:53:19;;;;;;;12.85;6.53;;;;;;;-0.38;87.71;97439.38;5000141;28;20038;-68
2021/01/19 00:55:45;;;;;;;9.80;5.70;;;;;;;-0.41;87.30;97438.06;5029944;28;20050;-65
2021/01/19 00:58:13;;;;;;;12.98;5.63;;;;;;;-0.35;87.10;97438.03;5038464;28;20045;-66
2021/01/19 01:00:39;;;;;;;10.65;5.93;;;;;;;-0.30;87.77;97440.69;5022815;28;20052;-68
2021/01/19 01:03:04;;;;;;;9.90;5.68;;;;;;;-0.27;87.37;97434.72;5016756;28;20041;-67
2021/01/19 01:05:30;;;;;;;13.55;6.72;;;;;;;-0.18;87.27;97424.19;5022085;28;20049;-68
2021/01/19 01:07:55;;;;;;;21.15;8.15;;;;;;;-0.18;87.21;97429.56;5021568;28;20047;-68
2021/01/19 01:10:21;;;;;;;15.85;7.57;;;;;;;-0.16;86.75;97430.09;5016673;28;20042;-67
2021/01/19 01:12:46;;;;;;;15.40;7.68;;;;;;;-0.18;87.07;97424.19;5021740;28;20446;-67
2021/01/19 01:15:15;;;;;;;13.82;6.32;;;;;;;-0.15;87.07;97418.25;5016149;28;20038;-67
2021/01/19 01:17:40;;;;;;;15.32;7.75;;;;;;;-0.10;86.47;97413.63;5021548;28;20056;-67
2021/01/19 01:20:07;;;;;;;10.35;6.55;;;;;;;-0.07;85.86;97412.28;5016062;28;20054;-66
2021/01/19 01:22:43;;;;;;;16.15;7.63;;;;;;;-0.12;86.01;97415.00;5002740;28;20045;-68
2021/01/19 01:25:16;;;;;;;14.07;6.60;;;;;;;-0.21;86.34;97406.72;5015946;28;20048;-68
2021/01/19 01:27:43;;;;;;;15.18;7.00;;;;;;;-0.29;86.57;97415.38;5021063;28;20684;-68
2021/01/19 01:30:10;;;;;;;16.80;8.05;;;;;;;-0.34;86.64;97416.22;5016839;28;20178;-67
2021/01/19 01:32:45;;;;;;;13.18;7.03;;;;;;;-0.38;86.83;97417.84;5003028;28;20557;-66
2021/01/19 01:35:11;;;;;;;12.98;6.97;;;;;;;-0.45;87.46;97403.88;5015642;28;20037;-65
2021/01/19 01:37:54;;;;;;;17.33;7.30;;;;;;;-0.68;87.86;97408.06;5020038;28;20045;-67
2021/01/19 01:40:24;;;;;;;11.52;6.85;;;;;;;-0.67;87.83;97406.97;5014383;28;20037;-68
2021/01/19 01:42:52;;;;;;;13.57;7.47;;;;;;;-0.74;87.58;97407.25;5020809;28;20069;-67
2021/01/19 01:45:20;;;;;;;17.38;7.18;;;;;;;-0.85;87.49;97417.25;4999192;28;20079;-66
2021/01/19 01:47:48;;;;;;;13.50;6.75;;;;;;;-0.73;88.47;97411.56;5021435;28;20116;-67
2021/01/19 01:50:13;;;;;;;15.70;7.95;;;;;;;-0.75;88.31;97412.94;4993668;28;20048;-65
2021/01/19 01:52:39;;;;;;;15.27;7.05;;;;;;;-0.87;88.36;97411.34;5020951;28;20395;-67
2021/01/19 01:55:05;;;;;;;13.90;7.32;;;;;;;-0.94;88.57;97415.41;5016599;28;20077;-66
2021/01/19 01:57:32;;;;;;;15.20;7.63;;;;;;;-1.01;88.58;97407.63;5018790;28;20053;-68
2021/01/19 02:00:02;;;;;;;12.23;6.57;;;;;;;-1.09;88.77;97411.69;5020772;28;20065;-65
2021/01/19 02:02:28;;;;;;;15.18;6.85;;;;;;;-1.10;88.84;97396.63;5016968;28;20049;-68
2021/01/19 02:04:53;;;;;;;14.27;7.32;;;;;;;-1.07;89.02;97396.09;5003145;28;20041;-68
2021/01/19 02:07:38;;;;;;;12.02;6.32;;;;;;;-1.05;89.24;97399.31;5025482;28;20041;-68
2021/01/19 02:10:39;;;;;;;13.48;7.25;;;;;;;-1.16;89.33;97390.47;5022817;28;20577;-67
2021/01/19 02:13:36;;;;;;;14.95;6.70;;;;;;;-1.35;89.57;97394.84;5010401;28;20049;-67
2021/01/19 02:16:18;;;;;;;14.13;7.10;;;;;;;-1.46;90.34;97379.78;5017703;28;20038;-67
2021/01/19 02:19:04;;;;;;;10.45;6.88;;;;;;;-1.51;90.38;97374.44;5019922;28;20037;-67
2021/01/19 02:21:52;;;;;;;10.73;6.93;;;;;;;-1.58;90.56;97375.53;4999169;28;20069;-67
2021/01/19 02:24:33;;;;;;;13.18;7.13;;;;;;;-1.67;90.78;97373.66;4994513;28;20518;-68
2021/01/19 02:27:07;;;;;;;10.57;6.65;;;;;;;-1.80;90.80;97364.25;5001071;28;20108;-69
2021/01/19 02:30:10;;;;;;;11.93;7.07;;;;;;;-2.00;90.67;97355.16;5007363;28;20796;-68
2021/01/19 02:32:44;;;;;;;13.45;7.40;;;;;;;-2.17;91.33;97355.41;5021714;28;20107;-67
2021/01/19 02:35:18;;;;;;;13.48;7.63;;;;;;;-2.26;91.43;97354.34;5015218;28;20045;-68
2021/01/19 02:38:02;;;;;;;16.92;8.00;;;;;;;-2.27;91.40;97354.63;5019368;28;20046;-67
2021/01/19 02:40:28;;;;;;;16.23;7.70;;;;;;;-2.32;91.75;97353.53;5020239;28;20038;-68
2021/01/19 02:43:09;;;;;;;14.95;7.72;;;;;;;-2.39;91.78;97357.56;5031618;28;20453;-67
2021/01/19 02:45:36;;;;;;;12.90;7.28;;;;;;;-2.43;91.71;97356.47;5022819;28;20033;-67
2021/01/19 02:48:02;;;;;;;12.95;7.15;;;;;;;-2.42;92.16;97344.69;5024461;28;20128;-68
2021/01/19 02:50:28;;;;;;;15.70;7.70;;;;;;;-2.53;92.20;97343.84;5016079;28;20104;-68
2021/01/19 02:52:54;;;;;;;16.92;7.85;;;;;;;-2.58;92.15;97341.97;5021556;28;20064;-66
2021/01/19 02:55:19;;;;;;;14.50;7.43;;;;;;;-2.52;92.15;97346.28;5017487;28;20056;-67
2021/01/19 02:58:16;;;;;;;16.60;8.68;;;;;;;-2.45;92.75;97337.94;5020553;28;20120;-67
2021/01/19 03:00:55;;;;;;;14.18;7.95;;;;;;;-2.42;93.16;97329.38;5023061;28;20103;-67
2021/01/19 03:03:22;;;;;;;16.17;7.15;;;;;;;-2.53;92.66;97325.09;5013794;28;20042;-67
2021/01/19 03:05:48;;;;;;;14.20;7.45;;;;;;;-2.70;92.61;97320.78;5006295;28;20426;-67
2021/01/19 03:08:14;;;;;;;13.55;6.80;;;;;;;-2.78;92.58;97328.53;5019156;28;20041;-66
2021/01/19 03:10:42;;;;;;;14.43;6.45;;;;;;;-2.87;92.44;97328.22;5045530;28;20069;-66
2021/01/19 03:13:13;;;;;;;12.50;6.88;;;;;;;-2.92;92.70;97326.34;5023049;28;20541;-66
2021/01/19 03:15:39;;;;;;;12.65;6.68;;;;;;;-3.07;92.46;97321.75;5005541;28;20041;-67
2021/01/19 03:18:07;;;;;;;12.38;6.03;;;;;;;-3.15;92.16;97329.47;5019617;28;20072;-66
2021/01/19 03:20:33;;;;;;;11.57;6.50;;;;;;;-3.28;92.36;97307.47;5022551;28;20057;-67
2021/01/19 03:22:59;;;;;;;12.50;6.63;;;;;;;-3.31;92.42;97309.88;5023507;28;20037;-66
2021/01/19 03:25:25;;;;;;;13.65;6.95;;;;;;;-3.29;92.75;97315.78;5018831;28;20525;-66
2021/01/19 03:27:50;;;;;;;11.00;6.43;;;;;;;-3.40;92.62;97312.25;5020416;28;20128;-65
2021/01/19 03:30:16;;;;;;;12.73;6.15;;;;;;;-3.46;93.24;97313.28;5018044;28;20041;-66
2021/01/19 03:32:41;;;;;;;9.35;5.35;;;;;;;-3.48;92.86;97316.22;5022451;28;20047;-65
2021/01/19 03:35:07;;;;;;;9.90;5.63;;;;;;;-3.55;92.78;97312.16;5017698;28;20125;-66
2021/01/19 03:37:33;;;;;;;11.52;6.00;;;;;;;-3.63;93.13;97320.72;5020854;28;20045;-66
2021/01/19 03:39:59;;;;;;;11.68;6.88;;;;;;;-3.69;93.16;97319.84;5023053;28;20033;-66
2021/01/19 03:42:24;;;;;;;11.90;7.80;;;;;;;-3.70;93.58;97319.06;5015783;28;20083;-67
2021/01/19 03:44:50;;;;;;;9.70;6.13;;;;;;;-3.71;93.45;97317.47;5021714;28;20048;-67
2021/01/19 03:47:15;;;;;;;9.98;5.60;;;;;;;-3.67;93.76;97323.09;5017634;28;20056;-67
2021/01/19 03:49:41;;;;;;;12.13;6.50;;;;;;;-3.56;93.72;97307.91;5032266;28;20052;-68
2021/01/19 03:52:06;;;;;;;10.73;5.63;;;;;;;-3.55;93.93;97310.28;5013011;28;20045;-65
2021/01/19 03:54:32;;;;;;;10.40;5.88;;;;;;;-3.58;93.94;97307.31;5022023;28;20049;-68
2021/01/19 03:56:57;;;;;;;12.07;6.30;;;;;;;-3.63;93.53;97310.78;5020615;28;20111;-68
2021/01/19 03:59:23;;;;;;;11.13;5.75;;;;;;;-3.82;93.36;97298.91;5016631;28;20119;-66
2021/01/19 04:01:49;;;;;;;10.55;5.72;;;;;;;-3.96;93.63;97302.06;5019573;28;20041;-66
2021/01/19 04:04:15;;;;;;;12.60;7.07;;;;;;;-4.04;95.06;97300.63;5014323;28;20045;-66
2021/01/19 04:06:40;;;;;;;17.10;9.02;;;;;;;-4.06;96.39;97293.94;5021137;28;20056;-64
2021/01/19 04:09:06;;;;;;;18.58;8.77;;;;;;;-4.06;96.88;97293.94;5016238;28;20088;-65
2021/01/19 04:11:31;;;;;;;27.20;10.90;;;;;;;-4.04;97.58;97289.94;5021423;28;20057;-67
2021/01/19 04:13:57;;;;;;;21.83;11.60;;;;;;;-4.10;97.59;97287.50;5018555;28;20598;-66
2021/01/19 04:16:22;;;;;;;26.17;11.43;;;;;;;-4.14;97.66;97287.22;5017692;28;20053;-67
2021/01/19 04:18:48;;;;;;;25.85;10.32;;;;;;;-4.17;97.59;97284.25;5018558;28;20076;-66
2021/01/19 04:21:14;;;;;;;23.02;10.43;;;;;;;-4.25;97.69;97272.97;5006076;28;20051;-66
2021/01/19 04:23:39;;;;;;;20.50;10.48;;;;;;;-4.25;97.84;97278.31;5014163;28;20407;-66
2021/01/19 04:26:06;;;;;;;20.42;10.07;;;;;;;-4.30;97.71;97277.47;5015577;28;20041;-69
2021/01/19 04:28:31;;;;;;;22.17;10.65;;;;;;;-4.30;97.41;97280.94;5017447;28;20049;-66
2021/01/19 04:30:56;;;;;;;18.80;9.60;;;;;;;-4.34;97.41;97285.22;5022126;28;20041;-66
2021/01/19 04:33:22;;;;;;;17.95;9.75;;;;;;;-4.62;96.56;97276.41;5016932;28;20354;-66
2021/01/19 04:35:47;;;;;;;24.60;10.07;;;;;;;-4.74;96.21;97275.75;5022164;28;20080;-67
2021/01/19 04:38:13;;;;;;;23.30;11.20;;;;;;;-4.79;96.79;97273.03;5012433;28;20041;-68
2021/01/19 04:40:38;;;;;;;20.48;10.77;;;;;;;-4.75;97.16;97271.50;5015505;28;20566;-67
2021/01/19 04:43:04;;;;;;;21.02;10.88;;;;;;;-4.33;96.82;97277.97;5007982;28;20049;-67
2021/01/19 04:45:33;;;;;;;21.35;11.48;;;;;;;-4.35;97.10;97282.78;5012901;28;20667;-68
2021/01/19 04:48:01;;;;;;;20.80;10.68;;;;;;;-4.34;96.95;97271.84;5031176;28;20033;-67
2021/01/19 04:50:28;;;;;;;21.80;10.02;;;;;;;-4.35;97.01;97274.75;5029975;28;20041;-69
2021/01/19 04:52:58;;;;;;;22.20;10.00;;;;;;;-4.38;96.76;97277.94;5005046;28;20042;-67
2021/01/19 04:55:24;;;;;;;19.70;10.38;;;;;;;-4.37;96.97;97276.88;5011540;28;21026;-66
2021/01/19 04:58:13;;;;;;;19.42;9.80;;;;;;;-4.43;96.80;97270.66;5015508;28;20037;-66
2021/01/19 05:00:38;;;;;;;18.63;8.70;;;;;;;-4.47;96.45;97266.91;5020427;28;20038;-67
2021/01/19 05:03:21;;;;;;;20.27;9.23;;;;;;;-4.49;96.91;97261.81;4992901;28;20048;-67
2021/01/19 05:05:46;;;;;;;20.10;9.15;;;;;;;-4.55;96.29;97254.81;4997671;28;20056;-69
2021/01/19 05:08:15;;;;;;;16.15;8.40;;;;;;;-4.59;96.25;97256.41;5013915;28;20499;-69
2021/01/19 05:10:40;;;;;;;24.10;10.10;;;;;;;-4.58;96.43;97258.00;5020230;28;20042;-67
2021/01/19 05:13:14;;;;;;;24.75;9.48;;;;;;;-4.57;96.41;97253.44;5007884;28;20049;-68
2021/01/19 05:15:48;;;;;;;17.25;9.32;;;;;;;-4.56;96.53;97260.41;5007014;28;20041;-68
2021/01/19 05:18:15;;;;;;;17.85;8.50;;;;;;;-4.56;96.14;97253.19;5014876;28;20045;-67
2021/01/19 05:20:50;;;;;;;22.50;10.50;;;;;;;-4.48;96.00;97243.91;5014171;28;20041;-68
2021/01/19 05:23:22;;;;;;;25.08;10.18;;;;;;;-4.53;95.85;97250.03;5000392;28;20072;-66
2021/01/19 05:25:55;;;;;;;17.98;8.77;;;;;;;-4.53;95.85;97241.19;4992216;28;20447;-68
2021/01/19 05:28:30;;;;;;;20.40;8.82;;;;;;;-4.50;95.79;97233.47;5009193;28;20042;-68
2021/01/19 05:30:55;;;;;;;16.38;7.90;;;;;;;-4.52;95.39;97232.09;5022226;28;20103;-68
2021/01/19 05:33:21;;;;;;;17.60;8.48;;;;;;;-4.53;95.55;97233.97;5016150;28;20136;-69
2021/01/19 05:35:46;;;;;;;21.92;8.88;;;;;;;-4.41;95.78;97231.13;5022376;28;20136;-69
2021/01/19 05:38:12;;;;;;;20.15;8.68;;;;;;;-4.28;95.52;97214.63;5015678;28;20079;-70
2021/01/19 05:40:44;;;;;;;20.63;9.48;;;;;;;-4.06;95.14;97216.34;5019538;28;20848;-68
2021/01/19 05:43:13;;;;;;;27.00;13.50;;;;;;;-3.82;93.99;97210.56;5013275;28;20187;-65
2021/01/19 05:45:51;;;;;;;24.80;10.43;;;;;;;-3.68;94.33;97204.47;5016156;28;20037;-68
2021/01/19 05:48:17;;;;;;;58.85;17.50;;;;;;;-3.58;93.98;97197.53;5026424;28;20650;-68
2021/01/19 05:50:43;;;;;;;28.95;12.05;;;;;;;-3.60;93.80;97203.19;5023387;28;20128;-68
2021/01/19 05:53:16;;;;;;;22.75;8.93;;;;;;;-3.69;93.62;97202.88;5014136;28;20474;-69
2021/01/19 05:55:42;;;;;;;15.48;7.57;;;;;;;-3.79;93.39;97202.03;5017500;28;20083;-68
2021/01/19 05:58:15;;;;;;;15.98;8.10;;;;;;;-3.93;92.40;97212.41;4992773;28;20064;-67
2021/01/19 06:00:42;;;;;;;11.98;6.82;;;;;;;-4.00;92.32;97206.47;5012745;28;20505;-67
2021/01/19 06:03:17;;;;;;;12.93;7.65;;;;;;;-4.13;91.66;97205.09;5014115;28;20128;-67
2021/01/19 06:05:44;;;;;;;15.32;7.50;;;;;;;-4.30;91.12;97199.91;5017385;28;20033;-67
2021/01/19 06:08:10;;;;;;;14.00;7.90;;;;;;;-4.33;90.93;97203.91;5006687;28;20045;-68
2021/01/19 06:10:37;;;;;;;14.43;7.57;;;;;;;-4.35;91.29;97197.19;5016345;28;20728;-69
2021/01/19 06:13:02;;;;;;;20.92;8.90;;;;;;;-4.38;91.45;97190.50;5013541;28;20045;-71
2021/01/19 06:15:29;;;;;;;16.00;8.55;;;;;;;-4.27;91.82;97188.69;5012103;28;20459;-68
2021/01/19 06:17:56;;;;;;;20.58;9.60;;;;;;;-3.95;92.61;97169.84;5017062;28;20120;-67
2021/01/19 06:20:21;;;;;;;20.58;9.07;;;;;;;-3.74;92.71;97168.06;5008692;28;22791;-66
2021/01/19 06:22:47;;;;;;;20.63;9.77;;;;;;;-3.70;93.52;97177.16;5017973;28;20076;-68
2021/01/19 06:25:13;;;;;;;20.00;10.13;;;;;;;-3.71;93.05;97177.41;5013326;28;20042;-68
2021/01/19 06:27:39;;;;;;;17.40;8.75;;;;;;;-3.73;92.39;97183.03;5000847;28;20042;-66
2021/01/19 06:30:12;;;;;;;15.43;8.68;;;;;;;-3.80;92.35;97173.66;4995466;28;20499;-67
2021/01/19 06:32:48;;;;;;;18.13;8.73;;;;;;;-3.87;92.41;97172.03;5018067;28;20067;-68
2021/01/19 06:35:21;;;;;;;16.50;9.27;;;;;;;-3.88;91.97;97170.41;4993896;28;20041;-69
2021/01/19 06:37:49;;;;;;;15.35;8.93;;;;;;;-3.92;91.81;97168.53;4990491;28;20084;-67
2021/01/19 06:40:17;;;;;;;14.95;8.20;;;;;;;-3.93;91.80;97164.22;5010086;28;20486;-69
2021/01/19 06:42:59;;;;;;;16.88;8.38;;;;;;;-3.91;91.56;97156.75;5020021;28;20511;-68
2021/01/19 06:45:25;;;;;;;21.55;9.27;;;;;;;-3.90;90.57;97153.00;5013895;28;20493;-68
2021/01/19 06:47:52;;;;;;;24.40;10.60;;;;;;;-3.88;90.37;97148.19;5020480;28;20602;-68
2021/01/19 06:50:20;;;;;;;17.15;8.00;;;;;;;-3.83;90.65;97156.25;5013264;28;20053;-67
2021/01/19 06:52:55;;;;;;;15.30;8.35;;;;;;;-3.93;90.24;97150.84;5000751;28;20107;-67
2021/01/19 06:55:22;;;;;;;13.80;7.88;;;;;;;-3.98;89.96;97161.53;5018724;28;20044;-69
2021/01/19 06:57:52;;;;;;;16.80;7.82;;;;;;;-4.06;89.94;97144.91;5021408;28;20551;-68
2021/01/19 07:00:20;;;;;;;18.30;7.38;;;;;;;-4.16;89.44;97155.59;5014288;28;20056;-68
2021/01/19 07:02:49;;;;;;;16.05;9.15;;;;;;;-4.17;90.27;97145.16;5015614;28;20042;-67
2021/01/19 07:05:19;;;;;;;21.25;10.13;;;;;;;-4.12;90.13;97137.16;5014574;28;20052;-70
2021/01/19 07:08:06;;;;;;;17.92;10.48;;;;;;;-4.02;91.02;97139.84;5017330;28;20128;-67
2021/01/19 07:10:56;;;;;;;16.90;8.65;;;;;;;-3.95;91.46;97127.03;4978994;28;20050;-67
2021/01/19 07:13:23;;;;;;;;;;;;;;;-3.87;91.16;97123.84;5015788;28;20487;-67
2021/01/19 07:15:55;;;;;;;17.15;9.63;;;;;;;-3.86;90.80;97130.00;4977349;28;20434;-67
2021/01/19 07:18:42;;;;;;;19.70;9.88;;;;;;;-3.86;91.05;97132.69;5004852;28;20554;-67
2021/01/19 07:21:10;;;;;;;20.25;9.13;;;;;;;-3.89;90.46;97138.53;4995986;28;20042;-68
2021/01/19 07:23:45;;;;;;;15.27;10.13;;;;;;;-3.94;90.21;97134.00;5018945;28;20033;-66
2021/01/19 07:26:19;;;;;;;17.50;9.52;;;;;;;-3.91;90.38;97127.31;5011789;28;20053;-67
2021/01/19 07:28:45;;;;;;;46.55;16.35;;;;;;;-3.87;90.04;97128.38;5017365;28;20045;-69
2021/01/19 07:31:11;;;;;;;44.55;17.42;;;;;;;-3.86;90.37;97125.44;5013965;28;20525;-66
2021/01/19 07:33:41;;;;;;;38.80;15.82;;;;;;;-3.86;89.93;97125.44;5023465;28;20046;-67
2021/01/19 07:36:12;;;;;;;36.25;15.02;;;;;;;-3.86;89.48;97121.97;5018055;28;20037;-68
2021/01/19 07:38:37;;;;;;;34.47;12.80;;;;;;;-3.77;89.39;97112.34;5036044;28;20049;-68
2021/01/19 07:41:03;;;;;;;30.98;13.82;;;;;;;-3.58;89.99;97106.50;5009586;28;20045;-69
2021/01/19 07:43:34;;;;;;;26.35;11.55;;;;;;;-3.46;89.53;97099.84;5018086;28;20734;-68
2021/01/19 07:45:59;;;;;;;20.33;9.77;;;;;;;-3.50;86.62;97100.63;5021613;28;20037;-68
2021/01/19 07:48:36;;;;;;;21.23;9.70;;;;;;;-3.46;86.18;97099.03;5009629;28;20046;-67
2021/01/19 07:51:13;;;;;;;20.58;9.18;;;;;;;-3.44;85.02;97102.25;5002840;28;20034;-67
2021/01/19 07:53:48;;;;;;;19.02;8.68;;;;;;;-3.37;85.78;97101.97;5017238;28;20444;-67
2021/01/19 07:56:30;;;;;;;18.02;11.00;;;;;;;-3.26;85.20;97100.91;5005351;28;20574;-66
2021/01/19 07:58:57;;;;;;;21.80;10.18;;;;;;;-3.06;85.44;97108.16;5015914;28;20046;-66
2021/01/19 08:01:36;;;;;;;15.60;7.70;;;;;;;-2.90;84.25;97104.41;5016414;28;20053;-68
2021/01/19 08:04:15;;;;;;;16.75;9.18;;;;;;;-2.61;84.03;97097.63;5010736;28;20048;-67
2021/01/19 08:06:42;;;;;;;42.05;17.48;;;;;;;-2.22;84.13;97097.00;5011368;28;20107;-67
2021/01/19 08:09:16;;;;;;;28.95;12.75;;;;;;;-1.88;83.00;97099.81;5013813;28;20038;-68
2021/01/19 08:11:44;;;;;;;26.80;12.18;;;;;;;-1.78;81.40;97097.06;5014080;28;20072;-67
2021/01/19 08:14:10;;;;;;;21.50;10.48;;;;;;;-1.83;79.54;97094.41;5009521;28;20133;-68
2021/01/19 08:16:37;;;;;;;23.33;11.60;;;;;;;-1.69;78.06;97102.66;5020944;28;20045;-68
2021/01/19 08:19:05;;;;;;;26.42;12.23;;;;;;;-1.37;79.48;97098.69;5026266;28;20037;-70
2021/01/19 08:21:35;;;;;;;19.25;9.45;;;;;;;-1.16;76.90;97105.53;5020306;28;20045;-69
2021/01/19 08:24:04;;;;;;;;;;;;;;;-1.13;77.27;97106.03;5033265;28;20042;-68
2021/01/19 08:26:31;;;;;;;23.50;10.60;;;;;;;-1.05;77.52;97097.38;5021120;28;19920;-68
2021/01/19 08:28:56;;;;;;;21.13;10.55;;;;;;;-0.99;75.53;97089.00;5026059;28;20058;-69
2021/01/19 08:31:27;;;;;;;19.77;9.82;;;;;;;-0.70;75.21;97093.59;5025919;28;20053;-68
2021/01/19 08:33:58;;;;;;;16.83;9.43;;;;;;;-0.72;75.47;97087.69;5003866;28;20045;-65
2021/01/19 08:36:24;;;;;;;16.52;9.00;;;;;;;-0.41;75.09;97080.09;5016135;28;20041;-66
2021/01/19 08:38:51;;;;;;;15.52;8.65;;;;;;;-0.27;74.15;97082.09;5022308;28;20508;-69
2021/01/19 08:41:17;;;;;;;17.42;9.38;;;;;;;-0.02;73.58;97080.97;5017342;28;20049;-66
2021/01/19 08:43:57;;;;;;;17.58;9.18;;;;;;;0.29;71.86;97075.19;5014172;28;20279;-68
2021/01/19 08:46:23;;;;;;;16.00;9.00;;;;;;;1.02;70.43;97068.41;4999330;28;20897;-67
2021/01/19 08:48:50;;;;;;;14.50;8.25;;;;;;;1.26;70.50;97064.78;5018431;28;20049;-67
2021/01/19 08:51:23;;;;;;;17.27;8.85;;;;;;;1.18;69.57;97052.00;5012470;28;20183;-68
2021/01/19 08:53:49;;;;;;;13.48;8.55;;;;;;;1.32;71.09;97055.50;5019981;28;20355;-67
2021/01/19 08:56:22;;;;;;;17.60;9.60;;;;;;;1.74;70.94;97060.94;4997278;28;20168;-68
2021/01/19 08:58:48;;;;;;;16.58;8.98;;;;;;;2.14;71.01;97053.88;5021305;28;20137;-67
2021/01/19 09:01:14;;;;;;;13.93;8.55;;;;;;;3.26;64.44;97052.38;5017206;28;20045;-66
2021/01/19 09:03:40;;;;;;;16.10;9.20;;;;;;;4.04;63.76;97043.75;5019733;28;20367;-66
2021/01/19 09:06:08;;;;;;;15.25;9.23;;;;;;;3.42;63.83;97045.44;4993634;28;20025;-66
2021/01/19 09:08:35;;;;;;;13.98;9.77;;;;;;;3.52;63.74;97046.28;5019374;28;20166;-67
2021/01/19 09:11:10;;;;;;;14.38;8.55;;;;;;;4.25;62.31;97045.84;5020647;28;20064;-66
2021/01/19 09:13:41;;;;;;;13.18;7.53;;;;;;;2.58;68.83;97057.78;5020373;28;20048;-65
2021/01/19 09:16:06;;;;;;;14.77;7.43;;;;;;;2.35;69.18;97054.25;5015389;28;20052;-68
2021/01/19 09:18:32;;;;;;;15.00;8.35;;;;;;;2.86;69.45;97053.09;5021092;28;20080;-67
2021/01/19 09:21:04;;;;;;;14.60;8.27;;;;;;;3.12;66.40;97051.66;5019486;28;20080;-68
2021/01/19 09:23:34;;;;;;;12.05;7.22;;;;;;;2.73;68.04;97045.81;5020298;28;20045;-68
2021/01/19 09:26:06;;;;;;;10.27;6.13;;;;;;;3.74;63.73;97048.13;5022953;28;20394;-66
2021/01/19 09:28:35;;;;;;;10.02;6.43;;;;;;;4.94;60.96;97043.16;5022767;28;20042;-67
2021/01/19 09:31:18;;;;;;;10.55;6.70;;;;;;;5.93;55.98;97031.31;5022490;28;20046;-66
2021/01/19 09:33:48;;;;;;;18.27;8.27;;;;;;;7.14;52.92;97035.41;5020374;28;20159;-68
2021/01/19 09:36:15;;;;;;;7.93;5.07;;;;;;;6.57;54.74;97029.53;5015370;28;20048;-66
2021/01/19 09:38:41;;;;;;;7.57;4.10;;;;;;;6.51;53.22;97037.06;5020685;28;20585;-67
2021/01/19 09:41:08;;;;;;;7.38;4.22;;;;;;;7.31;49.78;97037.16;5015770;28;20060;-67
2021/01/19 09:43:35;;;;;;;6.30;4.28;;;;;;;6.28;55.24;97030.34;5020834;28;20506;-67
2021/01/19 09:46:06;;;;;;;6.07;3.90;;;;;;;6.01;52.84;97031.63;5020000;28;20455;-67
2021/01/19 09:48:35;;;;;;;6.82;4.25;;;;;;;5.87;55.72;97034.53;5019992;28;20044;-68
2021/01/19 09:51:05;;;;;;;7.30;3.50;;;;;;;5.75;54.54;97036.03;5020649;28;20496;-68
2021/01/19 09:53:33;;;;;;;4.55;3.20;;;;;;;4.68;58.39;97042.38;5018667;28;20728;-66
2021/01/19 09:56:00;;;;;;;6.50;3.97;;;;;;;4.85;57.44;97049.72;5020176;28;20041;-67
2021/01/19 09:58:27;;;;;;;5.85;3.50;;;;;;;5.14;56.80;97041.69;5014509;28;20238;-66
2021/01/19 10:00:53;;;;;;;6.97;3.35;;;;;;;5.81;55.77;97036.66;5020713;28;20038;-67
2021/01/19 10:03:21;;;;;;;5.38;3.33;;;;;;;5.27;55.42;97039.88;5014776;28;20045;-67
2021/01/19 10:05:59;;;;;;;5.05;3.40;;;;;;;4.95;55.97;97047.47;5020506;28;20132;-68
2021/01/19 10:08:25;;;;;;;5.60;2.85;;;;;;;4.57;56.34;97039.16;5015491;28;20045;-65
2021/01/19 10:10:50;;;;;;;5.63;3.42;;;;;;;4.46;56.89;97038.69;5019020;28;20041;-67
2021/01/19 10:13:15;;;;;;;5.78;3.47;;;;;;;4.91;56.52;97029.41;4998077;28;20326;-67
2021/01/19 10:15:41;;;;;;;6.15;3.38;;;;;;;5.49;55.86;97028.00;5020682;28;20041;-67
2021/01/19 10:18:06;;;;;;;5.53;3.42;;;;;;;4.91;54.66;97034.84;5015393;28;20068;-65
2021/01/19 10:20:34;;;;;;;7.82;3.22;;;;;;;4.23;57.22;97027.19;5034098;28;20521;-67
2021/01/19 10:23:00;;;;;;;6.07;3.63;;;;;;;4.29;57.18;97027.84;5021806;28;20099;-67
2021/01/19 10:25:31;;;;;;;5.80;3.25;;;;;;;3.95;55.93;97022.03;5017276;28;20052;-68
2021/01/19 10:28:04;;;;;;;9.13;4.28;;;;;;;4.08;59.04;97017.59;5019714;28;20040;-67
2021/01/19 10:30:40;;;;;;;7.72;3.83;;;;;;;3.25;61.38;97010.94;5020167;28;20048;-67
2021/01/19 10:33:05;;;;;;;7.68;4.15;;;;;;;4.15;57.17;97001.66;5015761;28;20049;-66
2021/01/19 10:35:33;;;;;;;6.47;3.47;;;;;;;4.30;54.97;96992.25;5020594;28;20114;-65
2021/01/19 10:38:04;;;;;;;6.63;4.05;;;;;;;3.27;59.36;96991.69;5021532;28;20402;-66
2021/01/19 10:40:30;;;;;;;6.80;4.28;;;;;;;3.49;60.26;96987.31;5022774;28;20046;-69
2021/01/19 10:42:56;;;;;;;10.18;4.65;;;;;;;4.35;56.01;96981.25;5019657;28;20049;-66
2021/01/19 10:45:25;;;;;;;7.20;3.97;;;;;;;3.83;58.41;96981.19;5014106;28;20053;-66
2021/01/19 10:47:51;;;;;;;6.00;3.47;;;;;;;4.28;55.85;96974.72;5019290;28;20064;-66
2021/01/19 10:50:19;;;;;;;14.88;5.50;;;;;;;4.33;55.55;96975.34;4996657;28;20069;-67
2021/01/19 10:52:53;;;;;;;84.68;50.53;;;;;;;3.94;57.77;96974.38;5016886;28;20052;-65
2021/01/19 10:55:19;;;;;;;40.85;24.10;;;;;;;3.16;60.71;96966.81;5012270;28;20045;-67
2021/01/19 10:57:45;;;;;;;16.77;11.32;;;;;;;3.45;59.80;96973.59;5016103;28;20379;-67
2021/01/19 11:00:11;;;;;;;28.00;15.43;;;;;;;2.63;62.33;96965.72;5016197;28;20046;-65
2021/01/19 11:02:37;;;;;;;10.93;6.22;;;;;;;3.12;61.62;96967.75;5019874;28;20161;-65
2021/01/19 11:05:03;;;;;;;8.07;4.95;;;;;;;3.38;60.74;96965.94;5018333;28;20069;-67
2021/01/19 11:07:28;;;;;;;10.35;5.15;;;;;;;3.10;61.81;96959.13;5019987;28;20367;-66
2021/01/19 11:09:53;;;;;;;8.95;4.47;;;;;;;2.89;63.14;96953.47;5024379;28;20045;-67
2021/01/19 11:12:19;;;;;;;7.68;4.45;;;;;;;3.16;62.31;96950.56;5018305;28;20057;-66
2021/01/19 11:14:44;;;;;;;9.43;4.93;;;;;;;3.39;62.48;96942.38;5023498;28;20112;-68
2021/01/19 11:17:10;;;;;;;10.88;5.93;;;;;;;3.78;61.89;96946.94;5019011;28;20041;-67
2021/01/19 11:19:35;;;;;;;9.70;4.63;;;;;;;4.06;60.03;96943.94;5023635;28;20049;-67
2021/01/19 11:22:00;;;;;;;6.95;3.63;;;;;;;4.49;55.54;96939.63;5023646;28;20505;-66
2021/01/19 11:24:26;;;;;;;6.28;4.05;;;;;;;4.34;56.37;96939.00;5018669;28;20069;-67
2021/01/19 11:26:52;;;;;;;6.47;3.53;;;;;;;4.28;56.93;96931.34;5023674;28;20099;-65
2021/01/19 11:29:17;;;;;;;8.63;3.88;;;;;;;4.45;57.44;96927.81;5017955;28;20059;-67
2021/01/19 11:31:42;;;;;;;9.35;4.63;;;;;;;4.55;56.87;96922.06;5023239;28;20045;-67
2021/01/19 11:34:09;;;;;;;5.80;3.60;;;;;;;4.35;55.90;96918.09;5018017;28;20049;-66